Time;durP1;ratioP1;P1;durP2;ratioP2;P2;SDS_P1;SDS_P2;PMS_P1;PMS_P2;Temp;Humidity;BMP_temperature;BMP_pressure;BME280_temperature;BME280_humidity;BME280_pressure;Samples;Min_cycle;Max_cycle;Signal;HPM_P1;HPM_P2
2023/10/01 00:01:35;;;;;;;0.10;0.10;;;;;;;;;;4997458;28;20486;-89
2023/10/01 00:04:04;;;;;;;0.10;0.10;;;;;;;;;;4996905;28;20057;-89
2023/10/01 00:06:30;;;;;;;0.10;0.10;;;;;;;;;;5013782;28;20056;-89
2023/10/01 00:08:57;;;;;;;0.10;0.10;;;;;;;;;;4997094;28;20076;-89
2023/10/01 00:11:25;;;;;;;0.10;0.10;;;;;;;;;;5013547;28;20203;-89
2023/10/01 00:13:51;;;;;;;0.10;0.10;;;;;;;;;;4997221;28;20394;-88
2023/10/01 00:16:17;;;;;;;0.10;0.10;;;;;;;;;;5013301;28;20049;-89
2023/10/01 00:18:43;;;;;;;0.10;0.10;;;;;;;;;;5013103;28;20044;-90
2023/10/01 00:21:09;;;;;;;0.10;0.10;;;;;;;;;;5029664;28;20062;-89
2023/10/01 00:23:35;;;;;;;0.10;0.10;;;;;;;;;;5030176;28;20056;-89
2023/10/01 00:26:01;;;;;;;0.10;0.10;;;;;;;;;;5013548;28;20041;-89
2023/10/01 00:28:27;;;;;;;0.10;0.10;;;;;;;;;;5013003;28;20064;-89
2023/10/01 00:30:53;;;;;;;0.10;0.10;;;;;;;;;;5029179;28;20041;-89
2023/10/01 00:33:19;;;;;;;0.10;0.10;;;;;;;;;;4996855;28;20099;-89
2023/10/01 00:35:45;;;;;;;0.10;0.10;;;;;;;;;;4996469;28;20033;-89
2023/10/01 00:38:11;;;;;;;0.10;0.10;;;;;;;;;;5012921;28;20482;-89
2023/10/01 00:40:37;;;;;;;0.10;0.10;;;;;;;;;;5013006;28;20091;-88
2023/10/01 00:43:06;;;;;;;0.10;0.10;;;;;;;;;;4996509;28;20045;-89
2023/10/01 00:45:32;;;;;;;0.10;0.10;;;;;;;;;;5012964;28;20106;-89
2023/10/01 00:47:59;;;;;;;0.10;0.10;;;;;;;;;;5012778;28;20057;-89
2023/10/01 00:50:25;;;;;;;0.10;0.10;;;;;;;;;;5012632;28;20041;-89
2023/10/01 00:52:57;;;;;;;0.10;0.10;;;;;;;;;;5012675;28;20042;-88
2023/10/01 00:55:23;;;;;;;0.10;0.10;;;;;;;;;;5029032;28;20243;-89
2023/10/01 00:57:49;;;;;;;0.10;0.10;;;;;;;;;;5012773;28;20067;-89
2023/10/01 01:00:16;;;;;;;0.10;0.10;;;;;;;;;;5012804;28;20052;-89
2023/10/01 01:03:05;;;;;;;0.10;0.10;;;;;;;;;;5028696;28;20473;-89
2023/10/01 01:05:34;;;;;;;0.10;0.10;;;;;;;;;;4998780;28;20474;-88
2023/10/01 01:08:03;;;;;;;0.20;0.20;;;;;;;;;;5012930;28;20072;-89
2023/10/01 01:10:31;;;;;;;0.10;0.10;;;;;;;;;;5012269;28;20347;-88
2023/10/01 01:12:58;;;;;;;0.10;0.10;;;;;;;;;;4996612;28;20343;-88
2023/10/01 01:15:24;;;;;;;0.10;0.10;;;;;;;;;;4996027;28;20094;-88
2023/10/01 01:17:50;;;;;;;0.10;0.10;;;;;;;;;;5012737;28;20038;-88
2023/10/01 01:20:19;;;;;;;0.10;0.10;;;;;;;;;;5012437;28;20045;-88
2023/10/01 01:22:51;;;;;;;0.20;0.20;;;;;;;;;;5011652;28;20077;-88
2023/10/01 01:25:20;;;;;;;0.20;0.20;;;;;;;;;;5012228;28;20037;-87
2023/10/01 01:27:50;;;;;;;0.10;0.10;;;;;;;;;;5012592;28;20041;-87
2023/10/01 01:30:26;;;;;;;0.20;0.20;;;;;;;;;;4995978;28;20045;-87
2023/10/01 01:32:53;;;;;;;0.10;0.10;;;;;;;;;;5012404;28;20045;-88
2023/10/01 01:35:27;;;;;;;0.50;0.50;;;;;;;;;;5012380;28;20400;-87
2023/10/01 01:37:54;;;;;;;0.10;0.10;;;;;;;;;;5013505;28;20375;-87
2023/10/01 01:40:31;;;;;;;0.10;0.10;;;;;;;;;;5012086;28;20038;-90
2023/10/01 01:42:57;;;;;;;0.10;0.10;;;;;;;;;;4997340;28;20090;-87
2023/10/01 01:45:27;;;;;;;0.10;0.10;;;;;;;;;;4996078;28;20049;-88
2023/10/01 01:47:53;;;;;;;0.10;0.10;;;;;;;;;;5012266;28;20057;-88
2023/10/01 01:50:26;;;;;;;0.10;0.10;;;;;;;;;;5011965;28;20398;-85
2023/10/01 01:52:56;;;;;;;0.10;0.10;;;;;;;;;;4996640;28;20062;-88
2023/10/01 01:55:28;;;;;;;0.10;0.10;;;;;;;;;;5012273;28;20077;-87
2023/10/01 01:58:08;;;;;;;0.10;0.10;;;;;;;;;;4996507;28;20153;-87
2023/10/01 02:00:35;;;;;;;0.10;0.10;;;;;;;;;;4997231;28;20042;-88
2023/10/01 02:03:10;;;;;;;0.10;0.10;;;;;;;;;;5011955;28;20061;-87
2023/10/01 02:05:38;;;;;;;0.10;0.10;;;;;;;;;;5012654;28;20042;-87
2023/10/01 02:08:07;;;;;;;0.20;0.20;;;;;;;;;;5011668;28;20045;-87
2023/10/01 02:10:44;;;;;;;0.20;0.20;;;;;;;;;;5011895;28;20110;-87
2023/10/01 02:13:12;;;;;;;0.20;0.20;;;;;;;;;;5012934;28;20033;-87
2023/10/01 02:15:38;;;;;;;0.10;0.10;;;;;;;;;;4995295;28;20541;-87
2023/10/01 02:18:04;;;;;;;0.20;0.20;;;;;;;;;;5011480;28;20116;-87
2023/10/01 02:20:33;;;;;;;0.40;0.40;;;;;;;;;;5027804;28;20069;-87
2023/10/01 02:23:02;;;;;;;0.10;0.10;;;;;;;;;;5011954;28;20060;-87
2023/10/01 02:25:37;;;;;;;0.10;0.10;;;;;;;;;;5011732;28;20109;-87
2023/10/01 02:28:10;;;;;;;0.15;0.15;;;;;;;;;;5013951;28;20040;-87
2023/10/01 02:30:36;;;;;;;0.10;0.10;;;;;;;;;;5014823;28;20045;-89
2023/10/01 02:33:18;;;;;;;0.10;0.10;;;;;;;;;;5014444;28;20141;-88
2023/10/01 02:35:55;;;;;;;0.20;0.20;;;;;;;;;;5015998;28;20124;-87
2023/10/01 02:41:08;;;;;;;0.10;0.10;;;;;;;;;;5017400;28;20041;-87
2023/10/01 02:43:35;;;;;;;0.10;0.10;;;;;;;;;;5014707;28;20057;-88
2023/10/01 02:46:09;;;;;;;0.10;0.10;;;;;;;;;;5015255;28;20053;-88
2023/10/01 02:48:36;;;;;;;0.10;0.10;;;;;;;;;;4998577;28;20041;-88
2023/10/01 02:51:14;;;;;;;0.10;0.10;;;;;;;;;;4998729;28;20573;-88
2023/10/01 02:53:42;;;;;;;0.10;0.10;;;;;;;;;;5016259;28;20053;-88
2023/10/01 02:56:12;;;;;;;0.10;0.10;;;;;;;;;;4998875;28;20045;-87
2023/10/01 02:58:39;;;;;;;0.20;0.20;;;;;;;;;;4998923;28;20435;-87
2023/10/01 03:01:08;;;;;;;0.10;0.10;;;;;;;;;;5030781;28;20060;-87
2023/10/01 03:03:38;;;;;;;0.10;0.10;;;;;;;;;;4998305;28;20474;-87
2023/10/01 03:06:09;;;;;;;0.10;0.10;;;;;;;;;;5015087;28;20141;-88
2023/10/01 03:11:18;;;;;;;0.10;0.10;;;;;;;;;;5015614;28;20291;-88
2023/10/01 03:13:47;;;;;;;0.20;0.20;;;;;;;;;;5014768;28;20081;-88
2023/10/01 03:19:12;;;;;;;0.10;0.10;;;;;;;;;;5016879;28;20045;-90
2023/10/01 03:24:25;;;;;;;0.10;0.10;;;;;;;;;;5030615;28;20045;-87
2023/10/01 03:26:51;;;;;;;0.15;0.10;;;;;;;;;;5014089;28;20382;-87
2023/10/01 03:29:21;;;;;;;0.20;0.20;;;;;;;;;;5014004;28;20102;-87
2023/10/01 03:31:53;;;;;;;0.10;0.10;;;;;;;;;;5030509;28;20049;-88
2023/10/01 03:34:28;;;;;;;0.10;0.10;;;;;;;;;;5014682;28;20254;-88
2023/10/01 03:36:58;;;;;;;0.10;0.10;;;;;;;;;;5030135;28;20042;-89
2023/10/01 03:39:27;;;;;;;0.13;0.13;;;;;;;;;;5030282;28;20079;-88
2023/10/01 03:45:18;;;;;;;0.10;0.10;;;;;;;;;;5015205;28;20053;-87
2023/10/01 03:47:27;;;;;;;0.10;0.10;;;;;;;;;;5029750;28;20049;-87
2023/10/01 03:49:55;;;;;;;0.10;0.10;;;;;;;;;;5013812;28;20045;-88
2023/10/01 03:52:21;;;;;;;0.10;0.10;;;;;;;;;;4997325;28;20037;-88
2023/10/01 03:55:26;;;;;;;0.10;0.10;;;;;;;;;;5013407;28;20041;-88
2023/10/01 03:58:05;;;;;;;0.10;0.10;;;;;;;;;;5013406;28;20371;-88
2023/10/01 04:00:34;;;;;;;0.10;0.10;;;;;;;;;;5016295;28;20042;-88
2023/10/01 04:03:01;;;;;;;0.10;0.10;;;;;;;;;;5013534;28;20387;-88
2023/10/01 04:05:46;;;;;;;0.10;0.10;;;;;;;;;;4997188;28;20057;-88
2023/10/01 04:08:12;;;;;;;0.20;0.20;;;;;;;;;;5030142;28;20112;-88
2023/10/01 04:10:43;;;;;;;0.10;0.10;;;;;;;;;;5013329;28;20038;-89
2023/10/01 04:13:12;;;;;;;0.10;0.10;;;;;;;;;;4996976;28;20048;-88
2023/10/01 04:15:41;;;;;;;0.10;0.10;;;;;;;;;;5029472;28;20041;-88
2023/10/01 04:20:48;;;;;;;0.10;0.10;;;;;;;;;;5029670;28;20509;-89
2023/10/01 04:23:29;;;;;;;0.20;0.20;;;;;;;;;;5013953;28;20048;-89
2023/10/01 04:25:55;;;;;;;0.10;0.10;;;;;;;;;;5013064;28;20454;-89
2023/10/01 04:28:21;;;;;;;0.10;0.10;;;;;;;;;;5029359;28;20045;-88
2023/10/01 04:30:51;;;;;;;0.10;0.10;;;;;;;;;;5013132;28;20033;-87
2023/10/01 04:33:23;;;;;;;0.10;0.10;;;;;;;;;;4997313;28;20063;-87
2023/10/01 04:35:55;;;;;;;0.20;0.20;;;;;;;;;;5013262;28;20045;-87
2023/10/01 04:38:28;;;;;;;0.20;0.20;;;;;;;;;;4997106;28;20045;-87
2023/10/01 04:40:54;;;;;;;0.20;0.20;;;;;;;;;;5013766;28;20169;-87
2023/10/01 04:43:25;;;;;;;0.10;0.10;;;;;;;;;;5012755;28;20070;-87
2023/10/01 04:45:52;;;;;;;0.20;0.20;;;;;;;;;;5012920;28;20055;-87
2023/10/01 04:48:24;;;;;;;0.10;0.10;;;;;;;;;;4996660;28;20045;-87
2023/10/01 04:50:54;;;;;;;0.10;0.10;;;;;;;;;;5029449;28;20046;-87
2023/10/01 04:53:21;;;;;;;0.10;0.10;;;;;;;;;;5012547;28;20090;-87
2023/10/01 04:56:05;;;;;;;0.10;0.10;;;;;;;;;;4996563;28;20050;-87
2023/10/01 04:58:38;;;;;;;0.10;0.10;;;;;;;;;;5014214;28;20496;-87
2023/10/01 05:01:07;;;;;;;;;;;;;;;;;;4997398;28;20045;-87
2023/10/01 05:03:38;;;;;;;0.10;0.10;;;;;;;;;;5028549;28;20354;-87
2023/10/01 05:06:08;;;;;;;0.10;0.10;;;;;;;;;;5013218;28;20505;-87
2023/10/01 05:08:40;;;;;;;0.10;0.10;;;;;;;;;;5012972;28;20045;-88
2023/10/01 05:11:13;;;;;;;0.10;0.10;;;;;;;;;;5013220;28;20041;-87
2023/10/01 05:13:42;;;;;;;;;;;;;;;;;;5013575;28;20478;-87
2023/10/01 05:16:12;;;;;;;0.20;0.20;;;;;;;;;;5028837;28;20368;-87
2023/10/01 05:18:38;;;;;;;0.30;0.30;;;;;;;;;;5028598;28;20393;-89
2023/10/01 05:21:11;;;;;;;1.65;0.30;;;;;;;;;;5012382;28;20097;-89
2023/10/01 05:23:39;;;;;;;0.30;0.30;;;;;;;;;;5012862;28;20041;-89
2023/10/01 05:26:06;;;;;;;0.10;0.10;;;;;;;;;;5031997;28;20045;-88
2023/10/01 05:28:31;;;;;;;0.10;0.10;;;;;;;;;;4997291;28;20050;-89
2023/10/01 05:31:21;;;;;;;0.10;0.10;;;;;;;;;;5011932;28;20049;-88
2023/10/01 05:33:51;;;;;;;0.10;0.10;;;;;;;;;;5028298;28;20073;-89
2023/10/01 05:36:18;;;;;;;0.10;0.10;;;;;;;;;;5013300;28;20042;-88
2023/10/01 05:38:44;;;;;;;0.10;0.10;;;;;;;;;;5011930;28;20033;-88
2023/10/01 05:41:13;;;;;;;0.10;0.10;;;;;;;;;;5012287;28;20094;-89
2023/10/01 05:43:50;;;;;;;0.10;0.10;;;;;;;;;;4995722;28;20068;-88
2023/10/01 05:46:17;;;;;;;0.10;0.10;;;;;;;;;;5013393;28;20094;-89
2023/10/01 05:48:43;;;;;;;0.10;0.10;;;;;;;;;;5011257;28;20120;-89
2023/10/01 05:51:11;;;;;;;0.10;0.10;;;;;;;;;;5011636;28;20064;-89
2023/10/01 05:53:38;;;;;;;0.20;0.20;;;;;;;;;;5011124;28;20125;-89
2023/10/01 05:56:06;;;;;;;0.10;0.10;;;;;;;;;;4994978;28;20061;-89
2023/10/01 05:58:33;;;;;;;0.10;0.10;;;;;;;;;;4992510;28;20038;-89
2023/10/01 06:01:05;;;;;;;0.40;0.17;;;;;;;;;;4992039;28;20128;-89
2023/10/01 06:03:31;;;;;;;0.10;0.10;;;;;;;;;;5105823;28;20130;-89
2023/10/01 06:06:08;;;;;;;0.10;0.10;;;;;;;;;;5115187;28;20504;-90
2023/10/01 06:08:45;;;;;;;0.10;0.10;;;;;;;;;;5115456;28;20047;-89
2023/10/01 06:11:15;;;;;;;0.10;0.10;;;;;;;;;;5103431;27;20070;-88
2023/10/01 06:13:49;;;;;;;0.10;0.10;;;;;;;;;;5101325;27;20038;-87
2023/10/01 06:16:15;;;;;;;0.10;0.10;;;;;;;;;;5118664;27;20046;-87
2023/10/01 06:18:51;;;;;;;0.10;0.10;;;;;;;;;;5134964;27;20052;-88
2023/10/01 06:21:23;;;;;;;0.10;0.10;;;;;;;;;;5119509;27;20040;-88
2023/10/01 06:23:51;;;;;;;0.10;0.10;;;;;;;;;;5117661;27;20039;-88
2023/10/01 06:26:20;;;;;;;0.10;0.10;;;;;;;;;;5058128;27;20038;-87
2023/10/01 06:28:47;;;;;;;0.10;0.10;;;;;;;;;;5010724;28;20045;-88
2023/10/01 06:31:16;;;;;;;0.10;0.10;;;;;;;;;;5012564;28;20451;-88
2023/10/01 06:33:42;;;;;;;0.15;0.15;;;;;;;;;;5030440;28;20049;-88
2023/10/01 06:36:21;;;;;;;0.10;0.10;;;;;;;;;;4998131;28;20045;-87
2023/10/01 06:38:47;;;;;;;0.20;0.20;;;;;;;;;;5015392;28;20067;-88
2023/10/01 06:41:18;;;;;;;0.17;0.17;;;;;;;;;;5017718;28;20076;-88
2023/10/01 06:43:48;;;;;;;0.10;0.10;;;;;;;;;;5106535;27;20047;-88
2023/10/01 06:46:19;;;;;;;0.45;0.45;;;;;;;;;;5014746;28;20053;-88
2023/10/01 06:48:47;;;;;;;0.10;0.10;;;;;;;;;;5002325;28;20037;-89
2023/10/01 06:51:14;;;;;;;0.10;0.10;;;;;;;;;;4986141;28;20041;-88
2023/10/01 06:53:45;;;;;;;0.10;0.10;;;;;;;;;;5007124;28;20407;-90
2023/10/01 06:56:17;;;;;;;0.10;0.10;;;;;;;;;;4994040;28;20080;-88
2023/10/01 07:01:42;;;;;;;0.20;0.20;;;;;;;;;;5009691;28;20053;-88
2023/10/01 07:04:08;;;;;;;0.10;0.10;;;;;;;;;;5067484;27;20086;-90
2023/10/01 07:06:36;;;;;;;0.20;0.20;;;;;;;;;;5100004;27;20111;-91
2023/10/01 07:09:04;;;;;;;0.20;0.20;;;;;;;;;;5134037;27;20111;-90
2023/10/01 07:11:31;;;;;;;0.40;0.20;;;;;;;;;;5101554;27;20043;-91
2023/10/01 07:13:58;;;;;;;0.20;0.20;;;;;;;;;;5117551;27;20113;-92
2023/10/01 07:16:39;;;;;;;0.10;0.10;;;;;;;;;;5101218;27;20380;-90
2023/10/01 07:19:05;;;;;;;0.10;0.10;;;;;;;;;;5099366;28;20489;-90
2023/10/01 07:21:34;;;;;;;1.20;1.20;;;;;;;;;;5112930;28;20039;-91
2023/10/01 07:24:01;;;;;;;0.10;0.10;;;;;;;;;;5117685;27;20039;-91
2023/10/01 07:26:31;;;;;;;0.20;0.20;;;;;;;;;;5118057;27;20038;-93
2023/10/01 07:28:59;;;;;;;0.10;0.10;;;;;;;;;;5114805;27;20050;-94
2023/10/01 07:31:25;;;;;;;0.10;0.10;;;;;;;;;;5081643;28;20040;-94
2023/10/01 07:33:53;;;;;;;0.10;0.10;;;;;;;;;;5103052;27;20039;-93
2023/10/01 07:36:20;;;;;;;1.20;0.32;;;;;;;;;;5080843;28;20464;-93
2023/10/01 07:38:49;;;;;;;0.30;0.30;;;;;;;;;;5086063;28;20035;-93
2023/10/01 07:41:16;;;;;;;0.40;0.30;;;;;;;;;;5098456;28;20043;-92
2023/10/01 07:43:45;;;;;;;0.10;0.10;;;;;;;;;;5100670;27;20100;-92
2023/10/01 07:46:12;;;;;;;0.10;0.10;;;;;;;;;;5118301;27;20043;-93
2023/10/01 07:48:47;;;;;;;0.10;0.10;;;;;;;;;;5100783;27;20043;-92
2023/10/01 07:51:31;;;;;;;0.10;0.10;;;;;;;;;;5102144;27;20222;-93
2023/10/01 07:54:03;;;;;;;0.10;0.10;;;;;;;;;;5103547;27;20122;-92
2023/10/01 07:56:29;;;;;;;0.10;0.10;;;;;;;;;;5100857;27;20039;-92
2023/10/01 07:59:16;;;;;;;0.20;0.20;;;;;;;;;;5097198;28;20042;-93
2023/10/01 08:01:59;;;;;;;0.10;0.10;;;;;;;;;;5100657;28;20083;-94
2023/10/01 08:07:15;;;;;;;0.10;0.10;;;;;;;;;;5122669;27;20074;-94
2023/10/01 08:09:46;;;;;;;0.10;0.10;;;;;;;;;;5100431;27;20483;-93
2023/10/01 08:12:15;;;;;;;0.20;0.20;;;;;;;;;;5136063;27;20057;-92
2023/10/01 08:14:41;;;;;;;3.20;0.40;;;;;;;;;;5100891;27;20050;-94
2023/10/01 08:17:08;;;;;;;0.10;0.10;;;;;;;;;;5101165;27;20066;-93
2023/10/01 08:19:49;;;;;;;0.10;0.10;;;;;;;;;;5117211;27;20042;-91
2023/10/01 08:22:15;;;;;;;0.10;0.10;;;;;;;;;;5101275;27;20057;-91
2023/10/01 08:24:51;;;;;;;0.10;0.10;;;;;;;;;;5113245;27;20040;-91
2023/10/01 08:27:34;;;;;;;0.10;0.10;;;;;;;;;;5082025;28;20035;-94
2023/10/01 08:30:18;;;;;;;0.10;0.10;;;;;;;;;;5082503;28;20055;-96
2023/10/01 08:32:53;;;;;;;0.10;0.10;;;;;;;;;;5081258;28;20045;-92
2023/10/01 08:35:34;;;;;;;0.10;0.10;;;;;;;;;;5095460;28;20039;-93
2023/10/01 08:38:15;;;;;;;0.10;0.10;;;;;;;;;;5081316;28;20040;-94
2023/10/01 08:40:41;;;;;;;0.10;0.10;;;;;;;;;;5096382;28;20055;-92
2023/10/01 08:43:11;;;;;;;0.10;0.10;;;;;;;;;;5095877;28;20382;-91
2023/10/01 08:45:43;;;;;;;0.32;0.20;;;;;;;;;;5096936;28;20496;-90
2023/10/01 08:48:09;;;;;;;0.10;0.10;;;;;;;;;;5113603;27;20110;-91
2023/10/01 08:50:40;;;;;;;0.10;0.10;;;;;;;;;;5099182;27;20042;-90
2023/10/01 08:53:16;;;;;;;0.10;0.10;;;;;;;;;;5094712;28;20477;-90
2023/10/01 09:00:49;;;;;;;0.20;0.20;;;;;;;;;;5137767;27;20058;-90
2023/10/01 09:03:26;;;;;;;0.10;0.10;;;;;;;;;;5137062;27;20059;-92
2023/10/01 09:06:06;;;;;;;0.10;0.10;;;;;;;;;;5138955;27;20050;-94
2023/10/01 09:08:32;;;;;;;0.10;0.10;;;;;;;;;;5126134;27;20126;-93
2023/10/01 09:11:10;;;;;;;0.10;0.10;;;;;;;;;;5120097;27;20039;-91
2023/10/01 09:13:45;;;;;;;0.10;0.10;;;;;;;;;;5125867;27;20071;-92
2023/10/01 09:16:11;;;;;;;0.10;0.10;;;;;;;;;;5137576;27;20126;-92
2023/10/01 09:18:38;;;;;;;0.10;0.10;;;;;;;;;;5153877;27;20070;-92
2023/10/01 09:23:55;;;;;;;0.10;0.10;;;;;;;;;;5136207;27;20482;-92
2023/10/01 09:29:25;;;;;;;0.20;0.20;;;;;;;;;;5153729;27;20155;-90
2023/10/01 09:31:56;;;;;;;0.10;0.10;;;;;;;;;;5119241;27;20084;-94
2023/10/01 09:34:31;;;;;;;0.20;0.20;;;;;;;;;;5120082;27;20046;-90
2023/10/01 09:37:30;;;;;;;0.10;0.10;;;;;;;;;;5137693;27;20408;-90
2023/10/01 09:40:03;;;;;;;0.10;0.10;;;;;;;;;;5152117;27;20140;-90
2023/10/01 09:42:31;;;;;;;0.10;0.10;;;;;;;;;;5120177;27;20035;-89
2023/10/01 09:45:09;;;;;;;0.20;0.20;;;;;;;;;;5118507;27;20402;-90
2023/10/01 09:47:35;;;;;;;0.30;0.30;;;;;;;;;;5121052;27;20087;-90
2023/10/01 09:50:05;;;;;;;0.10;0.10;;;;;;;;;;5136069;27;20103;-88
2023/10/01 09:52:31;;;;;;;0.10;0.10;;;;;;;;;;5118971;27;20043;-87
2023/10/01 09:55:26;;;;;;;0.13;0.13;;;;;;;;;;5118204;27;20046;-87
2023/10/01 09:57:56;;;;;;;0.20;0.20;;;;;;;;;;5152749;27;20034;-90
2023/10/01 10:00:39;;;;;;;0.10;0.10;;;;;;;;;;5119244;27;20041;-87
2023/10/01 10:03:09;;;;;;;0.20;0.20;;;;;;;;;;5120625;27;20054;-89
2023/10/01 10:05:39;;;;;;;0.63;0.63;;;;;;;;;;5119146;27;20047;-91
2023/10/01 10:08:15;;;;;;;0.10;0.10;;;;;;;;;;5120844;27;20034;-90
2023/10/01 10:10:48;;;;;;;0.10;0.10;;;;;;;;;;5119892;27;20034;-89
2023/10/01 10:13:36;;;;;;;0.10;0.10;;;;;;;;;;5153127;27;20043;-90
2023/10/01 10:16:28;;;;;;;0.10;0.10;;;;;;;;;;5119192;27;20045;-91
2023/10/01 10:19:04;;;;;;;0.10;0.10;;;;;;;;;;5153149;27;20035;-89
2023/10/01 10:21:36;;;;;;;;;;;;;;;;;;5136252;27;20031;-88
2023/10/01 10:24:04;;;;;;;0.20;0.20;;;;;;;;;;5135142;27;19923;-87
2023/10/01 10:27:00;;;;;;;0.10;0.10;;;;;;;;;;5152181;27;20038;-88
2023/10/01 10:30:00;;;;;;;0.15;0.15;;;;;;;;;;5120433;27;20045;-87
2023/10/01 10:32:30;;;;;;;0.20;0.20;;;;;;;;;;5152513;27;20167;-86
2023/10/01 10:35:06;;;;;;;0.73;0.73;;;;;;;;;;5141163;27;20515;-87
2023/10/01 10:37:35;;;;;;;0.20;0.20;;;;;;;;;;5132554;27;20044;-88
2023/10/01 10:40:14;;;;;;;0.43;0.32;;;;;;;;;;5126071;27;20035;-88
2023/10/01 10:42:40;;;;;;;0.10;0.10;;;;;;;;;;5097498;28;20526;-90
2023/10/01 10:45:19;;;;;;;0.20;0.20;;;;;;;;;;5130987;28;20073;-90
2023/10/01 10:48:01;;;;;;;0.20;0.20;;;;;;;;;;5113970;28;20050;-92
2023/10/01 10:50:39;;;;;;;0.10;0.10;;;;;;;;;;5088633;28;20039;-92
2023/10/01 10:53:14;;;;;;;0.20;0.20;;;;;;;;;;5091959;28;20051;-92
2023/10/01 10:55:50;;;;;;;0.20;0.20;;;;;;;;;;5103363;27;20043;-92
2023/10/01 10:58:16;;;;;;;0.45;0.45;;;;;;;;;;5080785;28;20035;-91
2023/10/01 11:00:42;;;;;;;0.20;0.20;;;;;;;;;;5080920;28;20044;-91
2023/10/01 11:03:11;;;;;;;0.10;0.10;;;;;;;;;;5097795;28;20059;-92
2023/10/01 11:05:49;;;;;;;0.40;0.40;;;;;;;;;;5081027;28;20046;-92
2023/10/01 11:08:25;;;;;;;0.20;0.20;;;;;;;;;;5082576;28;20062;-92
2023/10/01 11:10:54;;;;;;;0.20;0.20;;;;;;;;;;5082004;28;20047;-92
2023/10/01 11:13:36;;;;;;;0.10;0.10;;;;;;;;;;5098046;28;20408;-94
2023/10/01 11:16:13;;;;;;;0.10;0.10;;;;;;;;;;5097803;28;20050;-92
2023/10/01 11:18:41;;;;;;;0.73;0.20;;;;;;;;;;5082325;28;20032;-92
2023/10/01 11:21:11;;;;;;;0.20;0.20;;;;;;;;;;5080590;28;20119;-92
2023/10/01 11:23:38;;;;;;;0.17;0.17;;;;;;;;;;5080925;28;20042;-92
2023/10/01 11:26:26;;;;;;;0.10;0.10;;;;;;;;;;5081609;28;20035;-93
2023/10/01 11:28:57;;;;;;;0.10;0.10;;;;;;;;;;5097648;28;20061;-94
2023/10/01 11:31:30;;;;;;;0.20;0.20;;;;;;;;;;5096840;28;20478;-94
2023/10/01 11:33:58;;;;;;;0.30;0.30;;;;;;;;;;5099282;27;20051;-93
2023/10/01 11:36:56;;;;;;;0.25;0.25;;;;;;;;;;5097717;28;20220;-94
2023/10/01 11:39:42;;;;;;;0.32;0.25;;;;;;;;;;5118027;28;20075;-95
2023/10/01 11:42:19;;;;;;;;;;;;;;;;;;5114989;28;20126;-94
2023/10/01 11:45:12;;;;;;;0.13;0.13;;;;;;;;;;5097923;28;19916;-95
2023/10/01 11:48:04;;;;;;;0.15;0.15;;;;;;;;;;5114004;28;20043;-93
2023/10/01 11:50:57;;;;;;;0.10;0.10;;;;;;;;;;5083549;28;20044;-95
2023/10/01 11:53:28;;;;;;;0.20;0.20;;;;;;;;;;5099482;28;20059;-89
2023/10/01 11:56:01;;;;;;;0.38;0.30;;;;;;;;;;5080456;28;20202;-92
2023/10/01 11:58:32;;;;;;;0.10;0.10;;;;;;;;;;5080258;28;20032;-92
2023/10/01 12:01:00;;;;;;;0.20;0.20;;;;;;;;;;5080053;28;20078;-93
2023/10/01 12:03:27;;;;;;;0.13;0.13;;;;;;;;;;5080247;28;20051;-91
2023/10/01 12:05:56;;;;;;;0.20;0.20;;;;;;;;;;5079624;28;20541;-91
2023/10/01 12:08:35;;;;;;;0.10;0.10;;;;;;;;;;5080300;28;20515;-92
2023/10/01 12:11:26;;;;;;;0.10;0.10;;;;;;;;;;5086159;28;20038;-89
2023/10/01 12:14:05;;;;;;;0.40;0.20;;;;;;;;;;5097972;28;20048;-90
2023/10/01 12:16:32;;;;;;;0.40;0.40;;;;;;;;;;5081495;28;20039;-91
2023/10/01 12:21:43;;;;;;;0.10;0.10;;;;;;;;;;5128683;27;20461;-90
2023/10/01 12:24:13;;;;;;;0.32;0.20;;;;;;;;;;5116134;27;20043;-90
2023/10/01 12:26:43;;;;;;;0.20;0.20;;;;;;;;;;5096300;28;20050;-91
2023/10/01 12:29:13;;;;;;;0.20;0.20;;;;;;;;;;5095541;28;20389;-90
2023/10/01 12:31:45;;;;;;;0.13;0.13;;;;;;;;;;5116436;27;20043;-90
2023/10/01 12:34:11;;;;;;;0.90;0.20;;;;;;;;;;5117143;27;20093;-90
2023/10/01 12:36:46;;;;;;;0.10;0.10;;;;;;;;;;5116469;27;20035;-91
2023/10/01 12:41:56;;;;;;;0.20;0.20;;;;;;;;;;5116658;27;20064;-90
2023/10/01 12:44:25;;;;;;;0.10;0.10;;;;;;;;;;5101493;27;20035;-90
2023/10/01 12:46:51;;;;;;;0.20;0.20;;;;;;;;;;5133557;27;20091;-90
2023/10/01 12:49:21;;;;;;;0.20;0.20;;;;;;;;;;5099236;27;20096;-87
2023/10/01 12:51:53;;;;;;;0.10;0.10;;;;;;;;;;5116522;27;20050;-92
2023/10/01 12:54:25;;;;;;;0.20;0.20;;;;;;;;;;5101343;27;20039;-90
2023/10/01 12:57:09;;;;;;;0.10;0.10;;;;;;;;;;5099587;27;20077;-89
2023/10/01 12:59:39;;;;;;;0.20;0.20;;;;;;;;;;5116534;27;20075;-91
2023/10/01 13:02:21;;;;;;;0.10;0.10;;;;;;;;;;5099745;27;20035;-92
2023/10/01 13:04:50;;;;;;;3.20;1.13;;;;;;;;;;5101840;27;20051;-92
2023/10/01 13:07:35;;;;;;;0.57;0.28;;;;;;;;;;5099546;27;20067;-94
2023/10/01 13:10:05;;;;;;;0.10;0.10;;;;;;;;;;5102146;27;20039;-91
2023/10/01 13:12:39;;;;;;;0.10;0.10;;;;;;;;;;5101155;27;20110;-93
2023/10/01 13:15:16;;;;;;;0.10;0.10;;;;;;;;;;5117509;27;20522;-93
2023/10/01 13:17:44;;;;;;;0.20;0.20;;;;;;;;;;5116942;27;20130;-90
2023/10/01 13:20:22;;;;;;;0.20;0.20;;;;;;;;;;5098128;27;20524;-92
2023/10/01 13:23:06;;;;;;;0.65;0.25;;;;;;;;;;5100241;27;20122;-90
2023/10/01 13:25:33;;;;;;;0.10;0.10;;;;;;;;;;5099740;27;20054;-91
2023/10/01 13:28:04;;;;;;;0.20;0.20;;;;;;;;;;5098610;27;20038;-93
2023/10/01 13:36:23;;;;;;;1.30;1.20;;;;;;;;;;5118241;27;20118;-93
2023/10/01 13:38:56;;;;;;;0.20;0.20;;;;;;;;;;5099975;27;20107;-94
2023/10/01 14:08:44;;;;;;;0.30;0.30;;;;;;;;;;5117432;28;20050;-92
2023/10/01 14:11:10;;;;;;;0.52;0.40;;;;;;;;;;5098618;28;20031;-90
2023/10/01 14:13:36;;;;;;;1.75;0.30;;;;;;;;;;5098017;28;20042;-93
2023/10/01 14:16:17;;;;;;;2.75;0.30;;;;;;;;;;5098294;28;20066;-92
2023/10/01 14:18:57;;;;;;;1.23;0.30;;;;;;;;;;5100351;28;20031;-91
2023/10/01 14:21:27;;;;;;;0.10;0.10;;;;;;;;;;5099949;28;20105;-93
2023/10/01 14:24:23;;;;;;;0.20;0.20;;;;;;;;;;5116670;28;20404;-93
2023/10/01 14:26:50;;;;;;;0.20;0.20;;;;;;;;;;5099620;28;20043;-93
2023/10/01 14:29:22;;;;;;;0.32;0.32;;;;;;;;;;5098027;28;20133;-93
2023/10/01 14:31:52;;;;;;;0.10;0.10;;;;;;;;;;5119156;27;20039;-94
2023/10/01 14:34:21;;;;;;;0.20;0.20;;;;;;;;;;5119042;27;20043;-93
2023/10/01 14:36:51;;;;;;;0.10;0.10;;;;;;;;;;5102345;27;20031;-93
2023/10/01 14:39:18;;;;;;;1.10;0.55;;;;;;;;;;5101877;27;20067;-91
2023/10/01 14:41:50;;;;;;;0.20;0.20;;;;;;;;;;5102198;27;20449;-92
2023/10/01 14:44:24;;;;;;;0.20;0.20;;;;;;;;;;5103397;27;20388;-92
2023/10/01 14:46:52;;;;;;;0.20;0.20;;;;;;;;;;5102930;27;20096;-91
2023/10/01 14:49:19;;;;;;;0.60;0.30;;;;;;;;;;5101200;27;20047;-92
2023/10/01 14:51:48;;;;;;;0.10;0.10;;;;;;;;;;5102259;27;20046;-92
2023/10/01 14:54:16;;;;;;;0.20;0.20;;;;;;;;;;5102338;27;20126;-90
2023/10/01 14:56:47;;;;;;;0.10;0.10;;;;;;;;;;5119227;27;20050;-94
2023/10/01 14:59:14;;;;;;;0.10;0.10;;;;;;;;;;5118989;27;20043;-92
2023/10/01 15:01:41;;;;;;;0.57;0.57;;;;;;;;;;5101583;27;20471;-94
2023/10/01 15:04:21;;;;;;;0.22;0.22;;;;;;;;;;5101578;27;20047;-93
2023/10/01 15:06:57;;;;;;;0.20;0.20;;;;;;;;;;5118830;27;20043;-93
2023/10/01 15:09:27;;;;;;;0.20;0.20;;;;;;;;;;5102653;27;20134;-91
2023/10/01 15:11:57;;;;;;;0.10;0.10;;;;;;;;;;5118502;27;20564;-92
2023/10/01 15:14:26;;;;;;;0.20;0.20;;;;;;;;;;5101761;27;20073;-93
2023/10/01 15:16:55;;;;;;;0.10;0.10;;;;;;;;;;5101963;27;20531;-93
2023/10/01 15:19:25;;;;;;;0.10;0.10;;;;;;;;;;5118024;27;20096;-91
2023/10/01 15:21:53;;;;;;;0.20;0.20;;;;;;;;;;5117829;27;20041;-92
2023/10/01 15:24:22;;;;;;;0.20;0.20;;;;;;;;;;5101637;27;20424;-93
2023/10/01 15:26:48;;;;;;;0.10;0.10;;;;;;;;;;5118215;27;20038;-91
2023/10/01 15:29:14;;;;;;;0.10;0.10;;;;;;;;;;5100557;27;20368;-90
2023/10/01 15:31:44;;;;;;;0.10;0.10;;;;;;;;;;5103557;27;20091;-90
2023/10/01 15:34:18;;;;;;;0.10;0.10;;;;;;;;;;5101139;27;20039;-91
2023/10/01 15:36:48;;;;;;;0.20;0.20;;;;;;;;;;5101521;27;20039;-91
2023/10/01 15:42:11;;;;;;;0.20;0.20;;;;;;;;;;5119533;27;20043;-90
2023/10/01 15:45:16;;;;;;;0.20;0.20;;;;;;;;;;5099909;27;20484;-91
2023/10/01 15:47:47;;;;;;;0.20;0.20;;;;;;;;;;5117556;27;20548;-92
2023/10/01 15:50:14;;;;;;;0.20;0.20;;;;;;;;;;5101475;27;20046;-92
2023/10/01 15:52:47;;;;;;;0.10;0.10;;;;;;;;;;5100257;27;20556;-89
2023/10/01 15:55:13;;;;;;;0.15;0.15;;;;;;;;;;5117451;27;20504;-90
2023/10/01 15:57:39;;;;;;;0.10;0.10;;;;;;;;;;5117220;27;20066;-90
2023/10/01 16:00:23;;;;;;;0.13;0.13;;;;;;;;;;5126244;27;20039;-91
2023/10/01 16:02:50;;;;;;;0.10;0.10;;;;;;;;;;5118991;27;20115;-91
2023/10/01 16:05:16;;;;;;;0.20;0.20;;;;;;;;;;5108384;27;20051;-92
2023/10/01 16:07:45;;;;;;;0.30;0.30;;;;;;;;;;5100549;27;20040;-92
2023/10/01 16:10:12;;;;;;;0.10;0.10;;;;;;;;;;5118141;27;20078;-92
2023/10/01 16:12:41;;;;;;;0.15;0.15;;;;;;;;;;5116868;27;20035;-92
2023/10/01 16:15:07;;;;;;;0.20;0.20;;;;;;;;;;5134489;27;20108;-92
2023/10/01 16:17:33;;;;;;;0.20;0.20;;;;;;;;;;5117536;27;20039;-90
2023/10/01 16:19:59;;;;;;;0.63;0.63;;;;;;;;;;5117227;27;20058;-91
2023/10/01 16:22:29;;;;;;;0.20;0.20;;;;;;;;;;5100330;27;20118;-92
2023/10/01 16:24:56;;;;;;;0.20;0.20;;;;;;;;;;5100783;27;20196;-92